createdAt,value
2019-03-15T00:00:30.247Z,3.50
2019-03-15T00:02:59.691Z,3.80
2019-03-15T00:05:29.135Z,3.65
2019-03-15T00:07:58.514Z,3.12
2019-03-15T00:10:27.946Z,3.27
2019-03-15T00:12:57.312Z,3.08
2019-03-15T00:15:26.744Z,2.77
2019-03-15T00:17:56.174Z,4.28
2019-03-15T00:20:26.439Z,3.47
2019-03-15T00:22:57.528Z,3.20
2019-03-15T00:25:26.898Z,3.60
2019-03-15T00:27:57.310Z,3.20
2019-03-15T00:30:26.667Z,2.67
2019-03-15T00:32:58.559Z,3.23
2019-03-15T00:35:28.232Z,2.90
2019-03-15T00:37:57.704Z,3.37
2019-03-15T00:40:27.076Z,3.15
2019-03-15T00:42:56.632Z,3.55
2019-03-15T00:45:26.078Z,3.50
2019-03-15T00:47:55.499Z,3.92
2019-03-15T00:50:24.934Z,2.87
2019-03-15T00:52:54.309Z,3.85
2019-03-15T00:55:23.665Z,3.20
2019-03-15T00:57:53.102Z,3.87
2019-03-15T01:00:22.577Z,3.70
2019-03-15T01:02:52.023Z,4.20
2019-03-15T01:05:21.371Z,3.90
2019-03-15T01:07:50.886Z,3.15
2019-03-15T01:10:20.297Z,3.63
2019-03-15T01:12:49.857Z,3.75
2019-03-15T01:15:19.761Z,3.43
2019-03-15T01:17:49.188Z,3.72
2019-03-15T01:20:18.527Z,5.37
2019-03-15T01:22:47.899Z,4.58
2019-03-15T01:25:17.389Z,3.67
2019-03-15T01:27:46.830Z,5.00
2019-03-15T01:30:16.159Z,4.85
2019-03-15T01:32:45.498Z,4.35
2019-03-15T01:35:14.864Z,4.62
2019-03-15T01:37:44.207Z,4.35
2019-03-15T01:40:13.640Z,5.90
2019-03-15T01:42:42.970Z,4.67
2019-03-15T01:45:12.450Z,4.90
2019-03-15T01:47:41.802Z,4.42
2019-03-15T01:50:11.209Z,4.65
2019-03-15T01:52:40.614Z,4.67
2019-03-15T01:55:10.161Z,4.60
2019-03-15T01:57:39.590Z,5.53
2019-03-15T02:00:11.907Z,4.13
2019-03-15T02:02:41.307Z,4.28
2019-03-15T02:05:10.647Z,4.83
2019-03-15T02:07:39.994Z,4.47
2019-03-15T02:10:09.465Z,4.70
2019-03-15T02:12:40.048Z,5.12
2019-03-15T02:15:11.230Z,4.42
2019-03-15T02:17:41.719Z,5.00
2019-03-15T02:20:11.143Z,3.95
2019-03-15T02:22:40.485Z,4.20
2019-03-15T02:25:09.951Z,3.92
2019-03-15T02:27:39.306Z,3.85
2019-03-15T02:30:10.790Z,4.22
2019-03-15T02:32:40.312Z,4.30
2019-03-15T02:35:09.714Z,3.62
2019-03-15T02:37:39.127Z,4.50
2019-03-15T02:40:08.618Z,4.35
2019-03-15T02:42:37.979Z,4.55
2019-03-15T02:45:07.470Z,3.45
2019-03-15T02:47:36.854Z,4.45
2019-03-15T02:50:07.555Z,3.72
2019-03-15T02:52:37.071Z,3.30
2019-03-15T02:55:08.471Z,4.25
2019-03-15T02:57:37.913Z,3.92
2019-03-15T03:00:08.897Z,4.08
2019-03-15T03:02:38.400Z,3.47
2019-03-15T03:05:09.687Z,4.35
2019-03-15T03:07:39.131Z,3.52
2019-03-15T03:10:09.123Z,4.75
2019-03-15T03:12:38.531Z,4.40
2019-03-15T03:15:08.628Z,4.87
2019-03-15T03:17:37.989Z,4.85
2019-03-15T03:20:09.240Z,4.45
2019-03-15T03:22:38.676Z,4.67
2019-03-15T03:25:08.170Z,6.35
2019-03-15T03:27:37.529Z,5.35
2019-03-15T03:30:09.229Z,5.45
2019-03-15T03:32:38.597Z,4.78
2019-03-15T03:35:09.474Z,5.75
2019-03-15T03:37:39.199Z,5.13
2019-03-15T03:40:08.712Z,5.15
2019-03-15T03:42:40.058Z,4.70
2019-03-15T03:45:09.916Z,4.40
2019-03-15T03:47:39.254Z,5.22
2019-03-15T03:50:10.250Z,4.47
2019-03-15T03:52:41.771Z,5.77
2019-03-15T03:55:10.778Z,4.67
2019-03-15T03:57:40.183Z,4.67
2019-03-15T04:00:12.283Z,4.58
2019-03-15T04:02:42.663Z,5.28
2019-03-15T04:05:12.257Z,4.12
2019-03-15T04:07:41.662Z,4.83
2019-03-15T04:10:12.695Z,5.03
2019-03-15T04:12:42.116Z,5.57
2019-03-15T04:15:11.926Z,4.97
2019-03-15T04:17:42.253Z,5.43
2019-03-15T04:20:12.755Z,5.27
2019-03-15T04:22:42.093Z,5.35
2019-03-15T04:25:11.631Z,4.47
2019-03-15T04:27:41.037Z,4.97
2019-03-15T04:30:14.449Z,5.65
2019-03-15T04:32:43.785Z,4.40
2019-03-15T04:35:13.133Z,5.40
2019-03-15T04:37:42.583Z,4.42
2019-03-15T04:40:12.292Z,4.90
2019-03-15T04:42:41.653Z,4.70
2019-03-15T04:45:10.993Z,5.15
2019-03-15T04:47:43.382Z,4.75
2019-03-15T04:50:11.512Z,4.40
2019-03-15T04:52:40.922Z,4.30
2019-03-15T04:55:10.378Z,4.55
2019-03-15T04:57:39.718Z,4.55
2019-03-15T05:00:12.184Z,4.20
2019-03-15T05:02:41.527Z,4.20
2019-03-15T05:05:10.933Z,5.22
2019-03-15T05:07:40.435Z,4.62
2019-03-15T05:10:10.108Z,4.25
2019-03-15T05:12:39.444Z,4.50
2019-03-15T05:15:10.056Z,4.53
2019-03-15T05:17:39.428Z,4.62
2019-03-15T05:20:09.698Z,4.47
2019-03-15T05:22:39.040Z,4.53
2019-03-15T05:25:08.990Z,5.33
2019-03-15T05:27:38.331Z,5.00
2019-03-15T05:30:10.536Z,5.12
2019-03-15T05:32:39.952Z,4.58
2019-03-15T05:35:10.444Z,4.64
2019-03-15T05:37:41.180Z,5.62
2019-03-15T05:40:10.658Z,4.25
2019-03-15T05:42:40.004Z,4.62
2019-03-15T05:45:12.063Z,3.55
2019-03-15T05:47:41.407Z,4.17
2019-03-15T05:50:12.395Z,4.74
2019-03-15T05:52:41.753Z,5.33
2019-03-15T05:55:12.868Z,4.80
2019-03-15T05:57:42.264Z,7.10
2019-03-15T06:00:13.593Z,5.65
2019-03-15T06:02:43.971Z,8.75
2019-03-15T06:05:13.405Z,9.70
2019-03-15T06:07:42.824Z,9.68
2019-03-15T06:10:13.322Z,11.50
2019-03-15T06:12:42.741Z,10.65
2019-03-15T06:15:12.291Z,11.73
2019-03-15T06:17:41.736Z,11.93
2019-03-15T06:20:12.236Z,11.50
2019-03-15T06:22:41.667Z,11.78
2019-03-15T06:25:11.672Z,11.28
2019-03-15T06:27:41.022Z,11.38
2019-03-15T06:30:15.201Z,9.22
2019-03-15T06:32:46.435Z,8.53
2019-03-15T06:35:15.797Z,8.40
2019-03-15T06:37:45.207Z,8.33
2019-03-15T06:40:14.660Z,8.23
2019-03-15T06:42:44.589Z,9.28
2019-03-15T06:45:17.964Z,8.93
2019-03-15T06:47:49.879Z,10.53
2019-03-15T06:50:19.216Z,9.67
2019-03-15T06:52:48.650Z,11.00
2019-03-15T06:55:18.005Z,12.67
2019-03-15T06:57:47.491Z,13.75
2019-03-15T07:00:16.968Z,14.13
2019-03-15T07:02:47.865Z,14.80
2019-03-15T07:05:17.328Z,16.25
2019-03-15T07:07:46.669Z,15.43
2019-03-15T07:10:17.673Z,16.35
2019-03-15T07:12:47.207Z,17.20
2019-03-15T07:15:16.703Z,17.07
2019-03-15T07:17:46.644Z,16.03
2019-03-15T07:20:16.909Z,15.18
2019-03-15T07:22:46.406Z,15.90
2019-03-15T07:25:15.830Z,13.58
2019-03-15T07:27:45.168Z,12.37
2019-03-15T07:30:15.660Z,10.40
2019-03-15T07:32:45.081Z,8.83
2019-03-15T07:35:14.426Z,7.15
2019-03-15T07:37:45.582Z,5.37
2019-03-15T07:40:14.930Z,4.72
2019-03-15T07:42:45.340Z,4.78
2019-03-15T07:45:15.074Z,3.43
2019-03-15T07:47:44.558Z,4.45
2019-03-15T07:50:16.804Z,4.20
2019-03-15T07:55:14.791Z,4.50
2019-03-15T07:57:44.161Z,4.53
2019-03-15T08:00:15.620Z,4.97
2019-03-15T08:02:45.054Z,4.65
2019-03-15T08:05:14.623Z,5.07
2019-03-15T08:07:45.677Z,5.87
2019-03-15T08:10:15.095Z,4.42
2019-03-15T08:12:44.448Z,4.75
2019-03-15T08:15:14.353Z,4.30
2019-03-15T08:17:43.784Z,5.75
2019-03-15T08:20:15.616Z,4.50
2019-03-15T08:22:44.987Z,5.28
2019-03-15T08:25:14.411Z,5.65
2019-03-15T08:27:43.838Z,4.95
2019-03-15T08:30:17.662Z,4.87
2019-03-15T08:32:47.087Z,5.08
2019-03-15T08:35:16.604Z,4.70
2019-03-15T08:37:46.040Z,4.25
2019-03-15T08:40:15.759Z,5.10
2019-03-15T08:42:45.195Z,5.35
2019-03-15T08:45:23.536Z,4.30
2019-03-15T08:47:53.794Z,5.23
2019-03-15T08:50:24.629Z,5.50
2019-03-15T08:52:54.571Z,5.75
2019-03-15T08:55:24.029Z,5.17
2019-03-15T08:57:54.373Z,5.00
2019-03-15T09:00:23.747Z,6.12
2019-03-15T09:02:53.190Z,4.65
2019-03-15T09:05:22.633Z,5.55
2019-03-15T09:07:52.169Z,5.03
2019-03-15T09:10:24.211Z,4.90
2019-03-15T09:12:55.243Z,5.40
2019-03-15T09:15:24.613Z,4.67
2019-03-15T09:17:54.069Z,5.12
2019-03-15T09:20:23.583Z,5.37
2019-03-15T09:22:53.027Z,4.95
2019-03-15T09:25:22.437Z,5.12
2019-03-15T09:27:51.766Z,5.00
2019-03-15T09:30:24.726Z,6.12
2019-03-15T09:32:52.255Z,6.07
2019-03-15T09:35:21.602Z,5.75
2019-03-15T09:37:51.147Z,5.12
2019-03-15T09:40:20.491Z,6.83
2019-03-15T09:42:49.904Z,5.97
2019-03-15T09:45:19.683Z,5.20
2019-03-15T09:47:49.075Z,6.40
2019-03-15T09:50:33.280Z,6.30
2019-03-15T09:52:49.563Z,4.83
2019-03-15T09:55:31.936Z,5.53
2019-03-15T09:57:50.052Z,5.23
2019-03-15T10:00:20.480Z,5.80
2019-03-15T10:02:49.961Z,5.08
2019-03-15T10:05:19.460Z,5.72
2019-03-15T10:07:48.894Z,6.35
2019-03-15T10:10:19.878Z,6.87
2019-03-15T10:12:49.231Z,6.37
2019-03-15T10:15:18.711Z,5.60
2019-03-15T10:17:48.064Z,6.15
2019-03-15T10:20:17.416Z,6.27
2019-03-15T10:23:02.960Z,5.30
2019-03-15T10:25:18.077Z,6.47
2019-03-15T10:27:47.436Z,6.22
2019-03-15T10:30:20.377Z,5.27
2019-03-15T10:32:49.971Z,5.20
2019-03-15T10:35:19.573Z,6.73
2019-03-15T10:37:49.092Z,4.80
2019-03-15T10:40:20.066Z,5.62
2019-03-15T10:42:49.710Z,4.60
2019-03-15T10:45:19.203Z,4.85
2019-03-15T10:47:49.631Z,4.90
2019-03-15T10:50:19.863Z,5.40
2019-03-15T10:52:49.298Z,5.10
2019-03-15T10:55:20.711Z,4.93
2019-03-15T10:57:49.928Z,4.57
2019-03-15T11:00:20.287Z,4.40
2019-03-15T11:02:50.067Z,5.75
2019-03-15T11:05:19.489Z,5.93
2019-03-15T11:07:48.845Z,6.20
2019-03-15T11:10:19.247Z,6.95
2019-03-15T11:12:48.604Z,6.00
2019-03-15T11:15:19.716Z,6.30
2019-03-15T11:17:49.139Z,5.90
2019-03-15T11:20:18.546Z,7.05
2019-03-15T11:22:47.927Z,5.40
2019-03-15T11:25:17.271Z,5.92
2019-03-15T11:27:46.644Z,5.45
2019-03-15T11:30:17.138Z,5.12
2019-03-15T11:32:46.679Z,5.43
2019-03-15T11:35:16.118Z,4.03
2019-03-15T11:37:45.473Z,4.53
2019-03-15T11:40:19.347Z,4.25
2019-03-15T11:42:49.054Z,4.80
2019-03-15T11:45:18.667Z,4.12
2019-03-15T11:48:02.794Z,3.87
2019-03-15T11:50:21.275Z,3.87
2019-03-15T11:55:19.192Z,3.63
2019-03-15T11:57:50.324Z,4.22
2019-03-15T12:00:20.244Z,4.17
2019-03-15T12:02:49.651Z,4.40
2019-03-15T12:05:19.024Z,3.67
2019-03-15T12:07:48.398Z,4.33
2019-03-15T12:10:18.137Z,4.03
2019-03-15T12:12:48.947Z,4.67
2019-03-15T12:15:19.079Z,4.13
2019-03-15T12:17:48.995Z,3.53
2019-03-15T12:20:18.428Z,3.98
2019-03-15T12:22:47.878Z,3.30
2019-03-15T12:25:17.307Z,3.65
2019-03-15T12:27:46.724Z,3.50
2019-03-15T12:30:19.034Z,3.83
2019-03-15T12:32:48.426Z,3.33
2019-03-15T12:35:17.868Z,2.77
2019-03-15T12:37:47.231Z,3.12
2019-03-15T12:40:17.533Z,3.20
2019-03-15T12:42:46.956Z,2.85
2019-03-15T12:45:17.453Z,2.60
2019-03-15T12:47:46.791Z,3.22
2019-03-15T12:50:16.599Z,2.77
2019-03-15T12:52:48.484Z,3.75
2019-03-15T12:55:17.068Z,2.80
2019-03-15T12:57:49.005Z,3.15
2019-03-15T13:00:19.970Z,2.70
2019-03-15T13:02:49.446Z,2.40
2019-03-15T13:05:18.793Z,3.05
2019-03-15T13:07:48.305Z,3.15
2019-03-15T13:10:22.559Z,2.90
2019-03-15T13:12:51.932Z,2.52
2019-03-15T13:15:21.426Z,3.17
2019-03-15T13:17:50.880Z,2.33
2019-03-15T13:20:20.304Z,2.95
2019-03-15T13:22:49.677Z,3.47
2019-03-15T13:25:19.042Z,2.42
2019-03-15T13:27:48.400Z,2.60
2019-03-15T13:30:17.885Z,2.90
2019-03-15T13:32:47.256Z,2.72
2019-03-15T13:35:16.761Z,3.30
2019-03-15T13:37:46.192Z,2.90
2019-03-15T13:40:19.027Z,3.98
2019-03-15T13:42:48.447Z,3.80
2019-03-15T13:45:17.886Z,3.62
2019-03-15T13:47:47.372Z,3.37
2019-03-15T13:50:18.739Z,3.63
2019-03-15T13:52:48.171Z,3.52
2019-03-15T13:55:17.589Z,3.37
2019-03-15T13:57:46.939Z,3.80
2019-03-15T14:00:18.057Z,4.00
2019-03-15T14:02:49.262Z,4.43
2019-03-15T14:07:47.277Z,3.77
2019-03-15T14:10:17.951Z,3.30
2019-03-15T14:12:47.373Z,4.25
2019-03-15T14:15:18.294Z,3.75
2019-03-15T14:17:47.752Z,4.27
2019-03-15T14:20:17.119Z,4.80
2019-03-15T14:22:49.374Z,4.17
2019-03-15T14:25:24.171Z,4.05
2019-03-15T14:27:53.571Z,5.62
2019-03-15T14:30:22.914Z,5.00
2019-03-15T14:32:52.489Z,4.47
2019-03-15T14:35:21.836Z,5.13
2019-03-15T14:37:51.349Z,4.22
2019-03-15T14:40:21.169Z,5.17
2019-03-15T14:42:50.854Z,4.47
2019-03-15T14:45:21.388Z,4.33
2019-03-15T14:47:51.938Z,5.10
2019-03-15T14:50:21.288Z,5.75
2019-03-15T14:52:50.660Z,5.15
2019-03-15T14:55:20.033Z,5.22
2019-03-15T14:57:53.597Z,5.22
2019-03-15T15:00:21.081Z,5.30
2019-03-15T15:02:50.530Z,5.35
2019-03-15T15:05:19.890Z,5.35
2019-03-15T15:07:49.250Z,5.40
2019-03-15T15:10:19.183Z,5.72
2019-03-15T15:12:48.567Z,6.03
2019-03-15T15:15:20.820Z,6.33
2019-03-15T15:17:50.167Z,6.70
2019-03-15T15:20:19.599Z,5.58
2019-03-15T15:22:48.955Z,5.35
2019-03-15T15:25:18.658Z,5.58
2019-03-15T15:27:48.005Z,5.58
2019-03-15T15:30:18.113Z,6.53
2019-03-15T15:32:47.537Z,6.17
2019-03-15T15:35:16.912Z,5.10
2019-03-15T15:37:46.390Z,6.00
2019-03-15T15:40:17.056Z,5.55
2019-03-15T15:42:46.474Z,5.63
2019-03-15T15:45:15.986Z,5.70
2019-03-15T15:47:45.335Z,4.97
2019-03-15T15:50:15.835Z,5.37
2019-03-15T15:52:45.240Z,5.37
2019-03-15T15:55:15.526Z,6.00
2019-03-15T15:57:44.907Z,5.65
2019-03-15T16:00:18.131Z,5.05
2019-03-15T16:02:47.642Z,4.67
2019-03-15T16:05:17.111Z,5.10
2019-03-15T16:07:46.466Z,4.78
2019-03-15T16:10:18.186Z,6.35
2019-03-15T16:12:48.492Z,5.20
2019-03-15T16:15:19.473Z,5.90
2019-03-15T16:17:48.898Z,6.53
2019-03-15T16:20:18.309Z,6.03
2019-03-15T16:22:47.843Z,5.65
2019-03-15T16:25:17.188Z,5.20
2019-03-15T16:27:46.562Z,6.03
2019-03-15T16:30:21.137Z,5.13
2019-03-15T16:32:50.541Z,6.17
2019-03-15T16:35:20.140Z,5.17
2019-03-15T16:37:49.546Z,5.45
2019-03-15T16:40:19.060Z,6.07
2019-03-15T16:42:50.039Z,5.53
2019-03-15T16:45:29.779Z,6.20
2019-03-15T16:47:59.282Z,5.50
2019-03-15T16:50:28.684Z,5.72
2019-03-15T16:52:58.041Z,4.70
2019-03-15T16:55:27.443Z,4.85
2019-03-15T16:57:56.873Z,5.78
2019-03-15T17:00:26.321Z,5.70
2019-03-15T17:02:55.921Z,4.60
2019-03-15T17:05:25.387Z,4.92
2019-03-15T17:07:54.740Z,4.92
2019-03-15T17:10:24.121Z,5.28
2019-03-15T17:12:55.808Z,5.08
2019-03-15T17:15:28.640Z,6.03
2019-03-15T17:17:58.107Z,5.42
2019-03-15T17:20:27.467Z,4.55
2019-03-15T17:22:57.303Z,4.60
2019-03-15T17:25:26.646Z,3.80
2019-03-15T17:27:56.003Z,3.65
2019-03-15T17:30:25.435Z,4.55
2019-03-15T17:32:54.849Z,3.72
2019-03-15T17:35:24.304Z,5.03
2019-03-15T17:37:53.679Z,3.77
2019-03-15T17:40:23.112Z,4.25
2019-03-15T17:42:52.467Z,4.15
2019-03-15T17:45:22.304Z,4.17
2019-03-15T17:47:51.748Z,3.72
2019-03-15T17:50:22.734Z,5.23
2019-03-15T17:52:52.194Z,4.53
2019-03-15T17:55:21.682Z,4.83
2019-03-15T17:57:51.020Z,5.53
2019-03-15T18:00:33.220Z,6.07
2019-03-15T18:03:02.587Z,4.97
2019-03-15T18:05:32.013Z,5.37
2019-03-15T18:08:01.454Z,5.22
2019-03-15T18:10:32.657Z,5.35
2019-03-15T18:13:03.634Z,4.95
2019-03-15T18:15:33.158Z,6.15
2019-03-15T18:18:02.750Z,5.90
2019-03-15T18:20:35.102Z,5.92
2019-03-15T18:23:05.415Z,5.42
2019-03-15T18:25:34.824Z,5.50
2019-03-15T18:28:04.261Z,5.58
2019-03-15T18:30:33.700Z,5.35
2019-03-15T18:33:03.646Z,4.90
2019-03-15T18:35:34.342Z,4.80
2019-03-15T18:38:04.044Z,6.03
2019-03-15T18:40:33.466Z,4.50
2019-03-15T18:43:02.881Z,4.60
2019-03-15T18:45:32.539Z,5.87
2019-03-15T18:48:01.878Z,5.17
2019-03-15T18:50:31.320Z,5.12
2019-03-15T18:53:00.751Z,5.05
2019-03-15T18:55:30.255Z,4.40
2019-03-15T18:57:59.632Z,5.78
2019-03-15T19:00:29.094Z,4.65
2019-03-15T19:02:59.968Z,4.60
2019-03-15T19:05:29.675Z,4.50
2019-03-15T19:08:00.985Z,4.90
2019-03-15T19:10:30.491Z,4.70
2019-03-15T19:12:59.928Z,4.47
2019-03-15T19:15:29.275Z,4.97
2019-03-15T19:17:59.316Z,5.37
2019-03-15T19:20:28.800Z,4.78
2019-03-15T19:22:58.185Z,5.58
2019-03-15T19:25:27.542Z,6.20
2019-03-15T19:27:56.899Z,4.95
2019-03-15T19:30:26.252Z,4.72
2019-03-15T19:32:56.097Z,6.15
2019-03-15T19:35:25.849Z,5.65
2019-03-15T19:37:55.304Z,5.62
2019-03-15T19:40:25.487Z,6.00
2019-03-15T19:42:55.002Z,5.53
2019-03-15T19:45:24.775Z,6.15
2019-03-15T19:47:54.483Z,6.80
2019-03-15T19:50:24.066Z,6.93
2019-03-15T19:52:53.836Z,7.12
2019-03-15T19:55:23.478Z,7.33
2019-03-15T19:58:05.942Z,7.10
2019-03-15T20:00:35.534Z,7.20
2019-03-15T20:03:07.325Z,6.33
2019-03-15T20:05:37.099Z,6.62
2019-03-15T20:08:06.842Z,6.03
2019-03-15T20:10:37.792Z,6.63
2019-03-15T20:13:08.115Z,7.80
2019-03-15T20:15:37.800Z,6.92
